sensor_id;sensor_type;location;lat;lon;timestamp;P1;durP1;ratioP1;P2;durP2;ratioP2
2576;SDS011;1298;51.252;6.802;2023-12-20T00:01:39;37.92;;;31.67;;
2576;SDS011;1298;51.252;6.802;2023-12-20T00:04:26;36.63;;;30.25;;
2576;SDS011;1298;51.252;6.802;2023-12-20T00:07:12;36.78;;;30.63;;
2576;SDS011;1298;51.252;6.802;2023-12-20T00:09:57;42.22;;;31.40;;
2576;SDS011;1298;51.252;6.802;2023-12-20T00:12:43;37.42;;;31.23;;
2576;SDS011;1298;51.252;6.802;2023-12-20T00:15:28;36.25;;;31.08;;
2576;SDS011;1298;51.252;6.802;2023-12-20T00:18:14;36.85;;;30.60;;
2576;SDS011;1298;51.252;6.802;2023-12-20T00:21:01;36.58;;;29.55;;
2576;SDS011;1298;51.252;6.802;2023-12-20T00:23:46;37.80;;;30.95;;
2576;SDS011;1298;51.252;6.802;2023-12-20T00:26:32;38.20;;;31.35;;
2576;SDS011;1298;51.252;6.802;2023-12-20T00:29:17;37.38;;;29.83;;
2576;SDS011;1298;51.252;6.802;2023-12-20T00:32:03;38.60;;;31.02;;
2576;SDS011;1298;51.252;6.802;2023-12-20T00:34:49;40.92;;;33.45;;
2576;SDS011;1298;51.252;6.802;2023-12-20T00:37:36;39.83;;;30.10;;
2576;SDS011;1298;51.252;6.802;2023-12-20T00:40:22;40.30;;;29.67;;
2576;SDS011;1298;51.252;6.802;2023-12-20T00:43:07;38.72;;;30.58;;
2576;SDS011;1298;51.252;6.802;2023-12-20T00:45:52;38.78;;;30.88;;
2576;SDS011;1298;51.252;6.802;2023-12-20T00:48:38;39.33;;;31.67;;
2576;SDS011;1298;51.252;6.802;2023-12-20T00:51:25;39.33;;;29.80;;
2576;SDS011;1298;51.252;6.802;2023-12-20T00:54:12;39.55;;;32.30;;
2576;SDS011;1298;51.252;6.802;2023-12-20T00:56:59;38.92;;;32.08;;
2576;SDS011;1298;51.252;6.802;2023-12-20T00:59:44;38.88;;;31.67;;
2576;SDS011;1298;51.252;6.802;2023-12-20T01:02:30;38.80;;;29.77;;
2576;SDS011;1298;51.252;6.802;2023-12-20T01:05:16;39.38;;;31.80;;
2576;SDS011;1298;51.252;6.802;2023-12-20T01:08:02;39.60;;;29.67;;
2576;SDS011;1298;51.252;6.802;2023-12-20T01:10:50;40.75;;;28.45;;
2576;SDS011;1298;51.252;6.802;2023-12-20T01:13:36;40.97;;;30.92;;
2576;SDS011;1298;51.252;6.802;2023-12-20T01:16:22;42.50;;;31.67;;
2576;SDS011;1298;51.252;6.802;2023-12-20T01:19:07;43.85;;;31.67;;
2576;SDS011;1298;51.252;6.802;2023-12-20T01:21:53;41.03;;;33.63;;
2576;SDS011;1298;51.252;6.802;2023-12-20T01:24:38;45.63;;;31.55;;
2576;SDS011;1298;51.252;6.802;2023-12-20T01:27:25;41.80;;;33.92;;
2576;SDS011;1298;51.252;6.802;2023-12-20T01:30:11;40.60;;;33.40;;
2576;SDS011;1298;51.252;6.802;2023-12-20T01:32:57;41.45;;;33.65;;
2576;SDS011;1298;51.252;6.802;2023-12-20T01:35:44;41.58;;;33.85;;
2576;SDS011;1298;51.252;6.802;2023-12-20T01:38:30;42.55;;;33.85;;
2576;SDS011;1298;51.252;6.802;2023-12-20T01:41:16;43.58;;;33.70;;
2576;SDS011;1298;51.252;6.802;2023-12-20T01:44:03;43.10;;;34.42;;
2576;SDS011;1298;51.252;6.802;2023-12-20T01:46:49;40.78;;;32.55;;
2576;SDS011;1298;51.252;6.802;2023-12-20T01:49:34;42.50;;;33.40;;
2576;SDS011;1298;51.252;6.802;2023-12-20T01:52:20;40.70;;;30.55;;
2576;SDS011;1298;51.252;6.802;2023-12-20T01:55:06;43.60;;;33.80;;
2576;SDS011;1298;51.252;6.802;2023-12-20T01:57:56;41.03;;;30.45;;
2576;SDS011;1298;51.252;6.802;2023-12-20T02:00:44;40.55;;;32.83;;
2576;SDS011;1298;51.252;6.802;2023-12-20T02:03:29;39.13;;;32.70;;
2576;SDS011;1298;51.252;6.802;2023-12-20T02:06:15;40.65;;;32.67;;
2576;SDS011;1298;51.252;6.802;2023-12-20T02:09:03;38.33;;;31.75;;
2576;SDS011;1298;51.252;6.802;2023-12-20T02:11:49;40.40;;;32.65;;
2576;SDS011;1298;51.252;6.802;2023-12-20T02:14:34;38.25;;;32.28;;
2576;SDS011;1298;51.252;6.802;2023-12-20T02:17:21;38.45;;;31.98;;
2576;SDS011;1298;51.252;6.802;2023-12-20T02:20:08;38.45;;;32.00;;
2576;SDS011;1298;51.252;6.802;2023-12-20T02:22:55;39.03;;;31.17;;
2576;SDS011;1298;51.252;6.802;2023-12-20T02:25:40;38.10;;;31.52;;
2576;SDS011;1298;51.252;6.802;2023-12-20T02:28:26;39.45;;;31.73;;
2576;SDS011;1298;51.252;6.802;2023-12-20T02:31:12;37.53;;;31.08;;
2576;SDS011;1298;51.252;6.802;2023-12-20T02:33:57;40.50;;;31.60;;
2576;SDS011;1298;51.252;6.802;2023-12-20T02:36:43;36.72;;;30.88;;
2576;SDS011;1298;51.252;6.802;2023-12-20T02:39:30;37.50;;;30.60;;
2576;SDS011;1298;51.252;6.802;2023-12-20T02:42:17;36.67;;;30.05;;
2576;SDS011;1298;51.252;6.802;2023-12-20T02:45:02;37.33;;;31.13;;
2576;SDS011;1298;51.252;6.802;2023-12-20T02:47:48;37.40;;;30.67;;
2576;SDS011;1298;51.252;6.802;2023-12-20T02:50:34;39.55;;;32.25;;
2576;SDS011;1298;51.252;6.802;2023-12-20T02:53:20;38.38;;;31.20;;
2576;SDS011;1298;51.252;6.802;2023-12-20T02:56:07;38.58;;;31.02;;
2576;SDS011;1298;51.252;6.802;2023-12-20T02:58:52;39.90;;;32.22;;
2576;SDS011;1298;51.252;6.802;2023-12-20T03:01:41;39.72;;;31.42;;
2576;SDS011;1298;51.252;6.802;2023-12-20T03:04:26;39.95;;;31.65;;
2576;SDS011;1298;51.252;6.802;2023-12-20T03:07:12;41.03;;;31.92;;
2576;SDS011;1298;51.252;6.802;2023-12-20T03:09:58;38.63;;;31.58;;
2576;SDS011;1298;51.252;6.802;2023-12-20T03:12:45;39.38;;;32.25;;
2576;SDS011;1298;51.252;6.802;2023-12-20T03:15:30;37.70;;;30.92;;
2576;SDS011;1298;51.252;6.802;2023-12-20T03:18:16;38.45;;;31.30;;
2576;SDS011;1298;51.252;6.802;2023-12-20T03:21:02;38.20;;;31.27;;
2576;SDS011;1298;51.252;6.802;2023-12-20T03:23:47;37.63;;;30.90;;
2576;SDS011;1298;51.252;6.802;2023-12-20T03:26:33;38.13;;;30.98;;
2576;SDS011;1298;51.252;6.802;2023-12-20T03:29:20;38.83;;;31.17;;
2576;SDS011;1298;51.252;6.802;2023-12-20T03:32:05;37.75;;;31.27;;
2576;SDS011;1298;51.252;6.802;2023-12-20T03:34:52;39.25;;;32.00;;
2576;SDS011;1298;51.252;6.802;2023-12-20T03:37:38;38.00;;;30.70;;
2576;SDS011;1298;51.252;6.802;2023-12-20T03:40:23;38.92;;;31.85;;
2576;SDS011;1298;51.252;6.802;2023-12-20T03:43:09;42.22;;;31.42;;
2576;SDS011;1298;51.252;6.802;2023-12-20T03:45:56;38.08;;;31.00;;
2576;SDS011;1298;51.252;6.802;2023-12-20T03:48:34;39.25;;;31.58;;
2576;SDS011;1298;51.252;6.802;2023-12-20T03:51:20;37.25;;;30.27;;
2576;SDS011;1298;51.252;6.802;2023-12-20T03:54:05;38.42;;;30.60;;
2576;SDS011;1298;51.252;6.802;2023-12-20T03:56:51;40.85;;;31.67;;
2576;SDS011;1298;51.252;6.802;2023-12-20T03:59:36;36.60;;;29.15;;
2576;SDS011;1298;51.252;6.802;2023-12-20T04:02:23;36.85;;;30.48;;
2576;SDS011;1298;51.252;6.802;2023-12-20T04:05:09;38.25;;;31.45;;
2576;SDS011;1298;51.252;6.802;2023-12-20T04:07:55;36.72;;;30.17;;
2576;SDS011;1298;51.252;6.802;2023-12-20T04:10:40;37.08;;;30.17;;
2576;SDS011;1298;51.252;6.802;2023-12-20T04:13:26;38.30;;;30.73;;
2576;SDS011;1298;51.252;6.802;2023-12-20T04:16:11;39.30;;;30.98;;
2576;SDS011;1298;51.252;6.802;2023-12-20T04:18:58;40.80;;;31.08;;
2576;SDS011;1298;51.252;6.802;2023-12-20T04:21:44;36.85;;;30.38;;
2576;SDS011;1298;51.252;6.802;2023-12-20T04:24:30;36.58;;;30.25;;
2576;SDS011;1298;51.252;6.802;2023-12-20T04:27:16;35.33;;;29.77;;
2576;SDS011;1298;51.252;6.802;2023-12-20T04:30:02;36.47;;;30.70;;
2576;SDS011;1298;51.252;6.802;2023-12-20T04:32:47;34.38;;;29.23;;
2576;SDS011;1298;51.252;6.802;2023-12-20T04:35:34;35.50;;;30.30;;
2576;SDS011;1298;51.252;6.802;2023-12-20T04:38:20;34.92;;;29.65;;
2576;SDS011;1298;51.252;6.802;2023-12-20T04:41:05;35.33;;;29.50;;
2576;SDS011;1298;51.252;6.802;2023-12-20T04:43:51;36.90;;;30.55;;
2576;SDS011;1298;51.252;6.802;2023-12-20T04:46:36;36.88;;;31.02;;
2576;SDS011;1298;51.252;6.802;2023-12-20T04:49:22;37.28;;;30.55;;
2576;SDS011;1298;51.252;6.802;2023-12-20T04:52:09;37.22;;;30.70;;
2576;SDS011;1298;51.252;6.802;2023-12-20T04:54:54;36.80;;;30.08;;
2576;SDS011;1298;51.252;6.802;2023-12-20T04:57:40;34.70;;;29.67;;
2576;SDS011;1298;51.252;6.802;2023-12-20T05:00:26;36.22;;;31.02;;
2576;SDS011;1298;51.252;6.802;2023-12-20T05:03:12;35.15;;;29.40;;
2576;SDS011;1298;51.252;6.802;2023-12-20T05:05:57;35.50;;;30.38;;
2576;SDS011;1298;51.252;6.802;2023-12-20T05:08:44;37.30;;;30.25;;
2576;SDS011;1298;51.252;6.802;2023-12-20T05:11:30;36.50;;;29.98;;
2576;SDS011;1298;51.252;6.802;2023-12-20T05:14:15;36.38;;;30.33;;
2576;SDS011;1298;51.252;6.802;2023-12-20T05:17:01;36.90;;;31.00;;
2576;SDS011;1298;51.252;6.802;2023-12-20T05:19:47;36.05;;;29.92;;
2576;SDS011;1298;51.252;6.802;2023-12-20T05:22:32;36.25;;;30.63;;
2576;SDS011;1298;51.252;6.802;2023-12-20T05:25:19;34.88;;;29.70;;
2576;SDS011;1298;51.252;6.802;2023-12-20T05:28:05;37.17;;;30.55;;
2576;SDS011;1298;51.252;6.802;2023-12-20T05:30:50;37.22;;;29.77;;
2576;SDS011;1298;51.252;6.802;2023-12-20T05:33:36;36.92;;;29.73;;
2576;SDS011;1298;51.252;6.802;2023-12-20T05:36:21;35.88;;;29.83;;
2576;SDS011;1298;51.252;6.802;2023-12-20T05:39:07;36.58;;;30.50;;
2576;SDS011;1298;51.252;6.802;2023-12-20T05:41:54;36.65;;;30.33;;
2576;SDS011;1298;51.252;6.802;2023-12-20T05:44:40;37.95;;;30.88;;
2576;SDS011;1298;51.252;6.802;2023-12-20T05:47:25;37.35;;;30.95;;
2576;SDS011;1298;51.252;6.802;2023-12-20T05:50:11;39.95;;;31.27;;
2576;SDS011;1298;51.252;6.802;2023-12-20T05:52:56;35.65;;;30.00;;
2576;SDS011;1298;51.252;6.802;2023-12-20T05:55:42;37.22;;;30.33;;
2576;SDS011;1298;51.252;6.802;2023-12-20T05:58:29;35.40;;;30.20;;
2576;SDS011;1298;51.252;6.802;2023-12-20T06:01:14;34.60;;;29.48;;
2576;SDS011;1298;51.252;6.802;2023-12-20T06:04:01;35.38;;;29.63;;
2576;SDS011;1298;51.252;6.802;2023-12-20T06:06:47;36.03;;;30.15;;
2576;SDS011;1298;51.252;6.802;2023-12-20T06:09:32;37.28;;;32.00;;
2576;SDS011;1298;51.252;6.802;2023-12-20T06:12:18;36.67;;;30.63;;
2576;SDS011;1298;51.252;6.802;2023-12-20T06:15:05;38.00;;;32.38;;
2576;SDS011;1298;51.252;6.802;2023-12-20T06:17:51;39.28;;;31.55;;
2576;SDS011;1298;51.252;6.802;2023-12-20T06:20:37;38.53;;;31.33;;
2576;SDS011;1298;51.252;6.802;2023-12-20T06:23:22;38.83;;;32.35;;
2576;SDS011;1298;51.252;6.802;2023-12-20T06:26:08;38.60;;;30.85;;
2576;SDS011;1298;51.252;6.802;2023-12-20T06:28:53;41.47;;;32.28;;
2576;SDS011;1298;51.252;6.802;2023-12-20T06:31:40;40.00;;;31.25;;
2576;SDS011;1298;51.252;6.802;2023-12-20T06:34:26;38.80;;;31.48;;
2576;SDS011;1298;51.252;6.802;2023-12-20T06:37:11;37.72;;;31.15;;
2576;SDS011;1298;51.252;6.802;2023-12-20T06:39:59;37.10;;;30.40;;
2576;SDS011;1298;51.252;6.802;2023-12-20T06:42:44;39.40;;;31.90;;
2576;SDS011;1298;51.252;6.802;2023-12-20T06:45:30;39.53;;;32.63;;
2576;SDS011;1298;51.252;6.802;2023-12-20T06:48:17;39.42;;;32.13;;
2576;SDS011;1298;51.252;6.802;2023-12-20T06:51:05;38.28;;;30.67;;
2576;SDS011;1298;51.252;6.802;2023-12-20T06:53:51;37.55;;;31.02;;
2576;SDS011;1298;51.252;6.802;2023-12-20T06:56:36;37.60;;;31.60;;
2576;SDS011;1298;51.252;6.802;2023-12-20T06:59:22;37.08;;;30.85;;
2576;SDS011;1298;51.252;6.802;2023-12-20T07:02:08;37.72;;;30.95;;
2576;SDS011;1298;51.252;6.802;2023-12-20T07:04:55;38.15;;;31.30;;
2576;SDS011;1298;51.252;6.802;2023-12-20T07:07:41;39.95;;;31.65;;
2576;SDS011;1298;51.252;6.802;2023-12-20T07:10:26;38.15;;;31.40;;
2576;SDS011;1298;51.252;6.802;2023-12-20T07:13:12;38.72;;;31.65;;
2576;SDS011;1298;51.252;6.802;2023-12-20T07:15:58;38.55;;;31.58;;
2576;SDS011;1298;51.252;6.802;2023-12-20T07:18:43;39.42;;;31.95;;
2576;SDS011;1298;51.252;6.802;2023-12-20T07:21:30;39.10;;;33.42;;
2576;SDS011;1298;51.252;6.802;2023-12-20T07:24:16;38.03;;;31.23;;
2576;SDS011;1298;51.252;6.802;2023-12-20T07:27:02;38.00;;;31.83;;
2576;SDS011;1298;51.252;6.802;2023-12-20T07:29:48;38.33;;;32.45;;
2576;SDS011;1298;51.252;6.802;2023-12-20T07:32:33;39.00;;;31.77;;
2576;SDS011;1298;51.252;6.802;2023-12-20T07:35:19;40.22;;;32.15;;
2576;SDS011;1298;51.252;6.802;2023-12-20T07:38:06;38.80;;;30.80;;
2576;SDS011;1298;51.252;6.802;2023-12-20T07:40:51;39.85;;;31.85;;
2576;SDS011;1298;51.252;6.802;2023-12-20T07:43:36;40.47;;;32.17;;
2576;SDS011;1298;51.252;6.802;2023-12-20T07:46:22;40.25;;;32.35;;
2576;SDS011;1298;51.252;6.802;2023-12-20T07:49:07;40.33;;;32.38;;
2576;SDS011;1298;51.252;6.802;2023-12-20T07:51:54;39.13;;;32.25;;
2576;SDS011;1298;51.252;6.802;2023-12-20T07:54:50;40.15;;;32.40;;
2576;SDS011;1298;51.252;6.802;2023-12-20T07:57:36;40.53;;;32.03;;
2576;SDS011;1298;51.252;6.802;2023-12-20T08:00:21;39.05;;;31.98;;
2576;SDS011;1298;51.252;6.802;2023-12-20T08:03:07;38.63;;;31.42;;
2576;SDS011;1298;51.252;6.802;2023-12-20T08:05:52;38.67;;;31.77;;
2576;SDS011;1298;51.252;6.802;2023-12-20T08:08:38;40.15;;;32.08;;
2576;SDS011;1298;51.252;6.802;2023-12-20T08:11:25;39.47;;;31.73;;
2576;SDS011;1298;51.252;6.802;2023-12-20T08:14:11;40.15;;;32.28;;
2576;SDS011;1298;51.252;6.802;2023-12-20T08:16:56;39.60;;;32.10;;
2576;SDS011;1298;51.252;6.802;2023-12-20T08:19:42;38.72;;;29.52;;
2576;SDS011;1298;51.252;6.802;2023-12-20T08:22:27;40.47;;;30.17;;
2576;SDS011;1298;51.252;6.802;2023-12-20T08:25:13;40.30;;;32.67;;
2576;SDS011;1298;51.252;6.802;2023-12-20T08:28:00;40.00;;;33.20;;
2576;SDS011;1298;51.252;6.802;2023-12-20T08:30:47;38.17;;;31.17;;
2576;SDS011;1298;51.252;6.802;2023-12-20T08:33:37;37.70;;;31.23;;
2576;SDS011;1298;51.252;6.802;2023-12-20T08:36:23;36.95;;;30.77;;
2576;SDS011;1298;51.252;6.802;2023-12-20T08:39:08;36.88;;;30.95;;
2576;SDS011;1298;51.252;6.802;2023-12-20T08:41:54;37.55;;;31.55;;
2576;SDS011;1298;51.252;6.802;2023-12-20T08:44:41;38.22;;;31.67;;
2576;SDS011;1298;51.252;6.802;2023-12-20T08:47:26;38.92;;;33.40;;
2576;SDS011;1298;51.252;6.802;2023-12-20T08:50:12;39.63;;;32.13;;
2576;SDS011;1298;51.252;6.802;2023-12-20T08:52:58;39.38;;;31.75;;
2576;SDS011;1298;51.252;6.802;2023-12-20T08:55:44;38.53;;;31.73;;
2576;SDS011;1298;51.252;6.802;2023-12-20T08:58:30;38.53;;;31.20;;
2576;SDS011;1298;51.252;6.802;2023-12-20T09:01:17;36.47;;;30.17;;
2576;SDS011;1298;51.252;6.802;2023-12-20T09:04:02;36.17;;;29.88;;
2576;SDS011;1298;51.252;6.802;2023-12-20T09:06:50;38.33;;;31.60;;
2576;SDS011;1298;51.252;6.802;2023-12-20T09:09:35;36.92;;;29.63;;
2576;SDS011;1298;51.252;6.802;2023-12-20T09:12:21;37.30;;;31.13;;
2576;SDS011;1298;51.252;6.802;2023-12-20T09:15:07;36.83;;;31.25;;
2576;SDS011;1298;51.252;6.802;2023-12-20T09:17:54;35.70;;;30.08;;
2576;SDS011;1298;51.252;6.802;2023-12-20T09:20:40;36.40;;;30.10;;
2576;SDS011;1298;51.252;6.802;2023-12-20T09:23:25;36.13;;;30.65;;
2576;SDS011;1298;51.252;6.802;2023-12-20T09:26:11;38.65;;;32.95;;
2576;SDS011;1298;51.252;6.802;2023-12-20T09:28:56;37.08;;;30.75;;
2576;SDS011;1298;51.252;6.802;2023-12-20T09:31:42;36.72;;;31.10;;
2576;SDS011;1298;51.252;6.802;2023-12-20T09:34:31;36.63;;;31.08;;
2576;SDS011;1298;51.252;6.802;2023-12-20T09:37:17;36.53;;;30.23;;
2576;SDS011;1298;51.252;6.802;2023-12-20T09:40:02;37.42;;;30.77;;
2576;SDS011;1298;51.252;6.802;2023-12-20T09:42:51;36.20;;;30.58;;
2576;SDS011;1298;51.252;6.802;2023-12-20T09:45:42;36.00;;;30.02;;
2576;SDS011;1298;51.252;6.802;2023-12-20T09:48:31;38.63;;;34.47;;
2576;SDS011;1298;51.252;6.802;2023-12-20T09:51:18;36.67;;;30.95;;
2576;SDS011;1298;51.252;6.802;2023-12-20T09:54:05;35.60;;;30.13;;
2576;SDS011;1298;51.252;6.802;2023-12-20T09:56:51;37.22;;;32.67;;
2576;SDS011;1298;51.252;6.802;2023-12-20T09:59:37;34.92;;;30.23;;
2576;SDS011;1298;51.252;6.802;2023-12-20T10:02:23;35.50;;;29.83;;
2576;SDS011;1298;51.252;6.802;2023-12-20T10:05:11;38.78;;;31.63;;
2576;SDS011;1298;51.252;6.802;2023-12-20T10:08:04;36.65;;;31.95;;
2576;SDS011;1298;51.252;6.802;2023-12-20T10:10:51;41.05;;;33.72;;
2576;SDS011;1298;51.252;6.802;2023-12-20T10:13:39;38.85;;;31.30;;
2576;SDS011;1298;51.252;6.802;2023-12-20T10:16:24;36.88;;;31.08;;
2576;SDS011;1298;51.252;6.802;2023-12-20T10:19:10;38.17;;;32.15;;
2576;SDS011;1298;51.252;6.802;2023-12-20T10:21:55;38.15;;;32.67;;
2576;SDS011;1298;51.252;6.802;2023-12-20T10:24:44;36.05;;;30.13;;
2576;SDS011;1298;51.252;6.802;2023-12-20T10:27:31;38.92;;;31.85;;
2576;SDS011;1298;51.252;6.802;2023-12-20T10:30:17;37.90;;;31.48;;
2576;SDS011;1298;51.252;6.802;2023-12-20T10:33:02;35.47;;;30.85;;
2576;SDS011;1298;51.252;6.802;2023-12-20T10:35:49;36.88;;;32.05;;
2576;SDS011;1298;51.252;6.802;2023-12-20T10:38:35;36.85;;;31.38;;
2576;SDS011;1298;51.252;6.802;2023-12-20T10:41:26;36.70;;;30.98;;
2576;SDS011;1298;51.252;6.802;2023-12-20T10:44:12;40.50;;;31.40;;
2576;SDS011;1298;51.252;6.802;2023-12-20T10:46:58;38.13;;;32.70;;
2576;SDS011;1298;51.252;6.802;2023-12-20T10:49:44;37.75;;;30.92;;
2576;SDS011;1298;51.252;6.802;2023-12-20T10:52:30;38.03;;;31.50;;
2576;SDS011;1298;51.252;6.802;2023-12-20T10:55:17;35.92;;;30.40;;
2576;SDS011;1298;51.252;6.802;2023-12-20T10:58:06;37.70;;;32.35;;
2576;SDS011;1298;51.252;6.802;2023-12-20T11:00:54;40.88;;;33.50;;
2576;SDS011;1298;51.252;6.802;2023-12-20T11:03:48;39.40;;;33.55;;
2576;SDS011;1298;51.252;6.802;2023-12-20T11:06:36;37.08;;;31.60;;
2576;SDS011;1298;51.252;6.802;2023-12-20T11:09:29;37.97;;;31.83;;
2576;SDS011;1298;51.252;6.802;2023-12-20T11:12:22;36.28;;;30.98;;
2576;SDS011;1298;51.252;6.802;2023-12-20T11:15:18;35.58;;;30.05;;
2576;SDS011;1298;51.252;6.802;2023-12-20T11:18:04;36.22;;;30.63;;
2576;SDS011;1298;51.252;6.802;2023-12-20T11:20:50;38.67;;;31.58;;
2576;SDS011;1298;51.252;6.802;2023-12-20T11:23:36;37.15;;;30.83;;
2576;SDS011;1298;51.252;6.802;2023-12-20T11:26:22;37.72;;;31.23;;
2576;SDS011;1298;51.252;6.802;2023-12-20T11:29:33;39.85;;;31.40;;
2576;SDS011;1298;51.252;6.802;2023-12-20T11:32:29;36.35;;;30.33;;
2576;SDS011;1298;51.252;6.802;2023-12-20T11:35:18;36.63;;;30.50;;
2576;SDS011;1298;51.252;6.802;2023-12-20T11:38:04;37.15;;;31.33;;
2576;SDS011;1298;51.252;6.802;2023-12-20T11:40:53;38.45;;;31.38;;
2576;SDS011;1298;51.252;6.802;2023-12-20T11:43:39;37.92;;;31.08;;
2576;SDS011;1298;51.252;6.802;2023-12-20T11:46:25;39.03;;;32.42;;
2576;SDS011;1298;51.252;6.802;2023-12-20T11:49:12;39.05;;;32.42;;
2576;SDS011;1298;51.252;6.802;2023-12-20T11:51:58;39.70;;;32.47;;
2576;SDS011;1298;51.252;6.802;2023-12-20T11:54:43;38.13;;;31.58;;
2576;SDS011;1298;51.252;6.802;2023-12-20T11:57:29;38.67;;;31.67;;
2576;SDS011;1298;51.252;6.802;2023-12-20T12:00:15;38.83;;;31.92;;
2576;SDS011;1298;51.252;6.802;2023-12-20T12:03:01;38.03;;;32.88;;
2576;SDS011;1298;51.252;6.802;2023-12-20T12:05:48;35.53;;;29.98;;
2576;SDS011;1298;51.252;6.802;2023-12-20T12:08:34;39.92;;;33.40;;
2576;SDS011;1298;51.252;6.802;2023-12-20T12:11:20;38.63;;;31.83;;
2576;SDS011;1298;51.252;6.802;2023-12-20T12:14:07;39.75;;;33.78;;
2576;SDS011;1298;51.252;6.802;2023-12-20T12:16:52;37.60;;;31.33;;
2576;SDS011;1298;51.252;6.802;2023-12-20T12:19:38;37.28;;;30.98;;
2576;SDS011;1298;51.252;6.802;2023-12-20T12:22:25;37.40;;;31.42;;
2576;SDS011;1298;51.252;6.802;2023-12-20T12:25:11;37.83;;;31.65;;
2576;SDS011;1298;51.252;6.802;2023-12-20T12:27:58;36.85;;;31.75;;
2576;SDS011;1298;51.252;6.802;2023-12-20T12:30:48;38.63;;;31.60;;
2576;SDS011;1298;51.252;6.802;2023-12-20T12:33:40;36.70;;;30.88;;
2576;SDS011;1298;51.252;6.802;2023-12-20T12:36:27;39.92;;;31.80;;
2576;SDS011;1298;51.252;6.802;2023-12-20T12:39:14;38.28;;;31.42;;
2576;SDS011;1298;51.252;6.802;2023-12-20T12:42:00;37.75;;;31.60;;
2576;SDS011;1298;51.252;6.802;2023-12-20T12:44:45;38.83;;;32.05;;
2576;SDS011;1298;51.252;6.802;2023-12-20T12:47:31;37.58;;;29.45;;
2576;SDS011;1298;51.252;6.802;2023-12-20T12:50:17;38.25;;;34.10;;
2576;SDS011;1298;51.252;6.802;2023-12-20T12:53:03;35.17;;;30.63;;
2576;SDS011;1298;51.252;6.802;2023-12-20T12:55:49;36.75;;;30.02;;
2576;SDS011;1298;51.252;6.802;2023-12-20T12:58:35;36.15;;;30.75;;
2576;SDS011;1298;51.252;6.802;2023-12-20T13:01:20;35.13;;;29.52;;
2576;SDS011;1298;51.252;6.802;2023-12-20T13:04:06;34.63;;;29.73;;
2576;SDS011;1298;51.252;6.802;2023-12-20T13:06:54;35.17;;;30.17;;
2576;SDS011;1298;51.252;6.802;2023-12-20T13:09:40;36.13;;;31.23;;
2576;SDS011;1298;51.252;6.802;2023-12-20T13:12:27;34.72;;;29.95;;
2576;SDS011;1298;51.252;6.802;2023-12-20T13:15:13;35.92;;;30.98;;
2576;SDS011;1298;51.252;6.802;2023-12-20T13:17:58;36.10;;;31.20;;
2576;SDS011;1298;51.252;6.802;2023-12-20T13:20:45;35.22;;;30.70;;
2576;SDS011;1298;51.252;6.802;2023-12-20T13:23:30;37.70;;;32.15;;
2576;SDS011;1298;51.252;6.802;2023-12-20T13:26:16;34.72;;;29.95;;
2576;SDS011;1298;51.252;6.802;2023-12-20T13:29:03;37.35;;;33.33;;
2576;SDS011;1298;51.252;6.802;2023-12-20T13:31:49;35.33;;;30.58;;
2576;SDS011;1298;51.252;6.802;2023-12-20T13:34:34;35.38;;;30.48;;
2576;SDS011;1298;51.252;6.802;2023-12-20T13:37:20;36.58;;;31.52;;
2576;SDS011;1298;51.252;6.802;2023-12-20T13:40:06;35.63;;;30.95;;
2576;SDS011;1298;51.252;6.802;2023-12-20T13:42:53;36.53;;;31.55;;
2576;SDS011;1298;51.252;6.802;2023-12-20T13:45:40;35.58;;;30.17;;
2576;SDS011;1298;51.252;6.802;2023-12-20T13:48:25;34.60;;;29.98;;
2576;SDS011;1298;51.252;6.802;2023-12-20T13:51:11;35.20;;;30.42;;
2576;SDS011;1298;51.252;6.802;2023-12-20T13:53:56;36.25;;;31.45;;
2576;SDS011;1298;51.252;6.802;2023-12-20T13:56:42;36.53;;;31.85;;
2576;SDS011;1298;51.252;6.802;2023-12-20T13:59:28;36.70;;;31.13;;
2576;SDS011;1298;51.252;6.802;2023-12-20T14:02:15;39.17;;;31.63;;
2576;SDS011;1298;51.252;6.802;2023-12-20T14:05:01;38.15;;;32.05;;
2576;SDS011;1298;51.252;6.802;2023-12-20T14:07:46;37.67;;;32.40;;
2576;SDS011;1298;51.252;6.802;2023-12-20T14:10:31;38.13;;;32.08;;
2576;SDS011;1298;51.252;6.802;2023-12-20T14:13:17;38.33;;;29.45;;
2576;SDS011;1298;51.252;6.802;2023-12-20T14:16:03;36.78;;;30.70;;
2576;SDS011;1298;51.252;6.802;2023-12-20T14:18:50;39.63;;;33.28;;
2576;SDS011;1298;51.252;6.802;2023-12-20T14:21:36;39.60;;;31.92;;
2576;SDS011;1298;51.252;6.802;2023-12-20T14:24:21;39.65;;;32.28;;
2576;SDS011;1298;51.252;6.802;2023-12-20T14:27:07;41.17;;;34.05;;
2576;SDS011;1298;51.252;6.802;2023-12-20T14:29:52;42.22;;;32.20;;
2576;SDS011;1298;51.252;6.802;2023-12-20T14:32:38;38.92;;;31.83;;
2576;SDS011;1298;51.252;6.802;2023-12-20T14:35:25;39.88;;;31.60;;
2576;SDS011;1298;51.252;6.802;2023-12-20T14:38:10;40.85;;;34.45;;
2576;SDS011;1298;51.252;6.802;2023-12-20T14:40:57;41.78;;;32.35;;
2576;SDS011;1298;51.252;6.802;2023-12-20T14:43:43;37.28;;;31.77;;
2576;SDS011;1298;51.252;6.802;2023-12-20T14:46:28;38.10;;;31.90;;
2576;SDS011;1298;51.252;6.802;2023-12-20T14:49:14;39.15;;;32.92;;
2576;SDS011;1298;51.252;6.802;2023-12-20T14:52:02;37.97;;;32.05;;
2576;SDS011;1298;51.252;6.802;2023-12-20T14:54:47;38.42;;;31.98;;
2576;SDS011;1298;51.252;6.802;2023-12-20T14:57:33;39.08;;;31.67;;
2576;SDS011;1298;51.252;6.802;2023-12-20T15:00:19;39.83;;;33.35;;
2576;SDS011;1298;51.252;6.802;2023-12-20T15:03:04;38.72;;;32.08;;
2576;SDS011;1298;51.252;6.802;2023-12-20T15:05:50;38.05;;;32.28;;
2576;SDS011;1298;51.252;6.802;2023-12-20T15:08:37;39.33;;;32.17;;
2576;SDS011;1298;51.252;6.802;2023-12-20T15:11:22;38.92;;;32.22;;
2576;SDS011;1298;51.252;6.802;2023-12-20T15:14:08;39.63;;;31.95;;
2576;SDS011;1298;51.252;6.802;2023-12-20T15:16:54;39.88;;;31.95;;
2576;SDS011;1298;51.252;6.802;2023-12-20T15:19:39;38.15;;;31.25;;
2576;SDS011;1298;51.252;6.802;2023-12-20T15:22:26;38.80;;;33.13;;
2576;SDS011;1298;51.252;6.802;2023-12-20T15:25:13;39.75;;;33.15;;
2576;SDS011;1298;51.252;6.802;2023-12-20T15:28:03;39.03;;;33.35;;
2576;SDS011;1298;51.252;6.802;2023-12-20T15:30:49;37.95;;;32.10;;
2576;SDS011;1298;51.252;6.802;2023-12-20T15:33:35;38.03;;;31.38;;
2576;SDS011;1298;51.252;6.802;2023-12-20T15:36:20;38.22;;;31.75;;
2576;SDS011;1298;51.252;6.802;2023-12-20T15:39:06;40.42;;;32.65;;
2576;SDS011;1298;51.252;6.802;2023-12-20T15:41:54;39.42;;;32.65;;
2576;SDS011;1298;51.252;6.802;2023-12-20T15:44:39;41.42;;;31.35;;
2576;SDS011;1298;51.252;6.802;2023-12-20T15:47:25;43.15;;;34.63;;
2576;SDS011;1298;51.252;6.802;2023-12-20T15:50:11;41.58;;;33.45;;
2576;SDS011;1298;51.252;6.802;2023-12-20T15:52:56;42.33;;;30.85;;
2576;SDS011;1298;51.252;6.802;2023-12-20T15:55:42;41.47;;;31.08;;
2576;SDS011;1298;51.252;6.802;2023-12-20T15:58:29;41.10;;;33.10;;
2576;SDS011;1298;51.252;6.802;2023-12-20T16:01:15;40.35;;;32.22;;
2576;SDS011;1298;51.252;6.802;2023-12-20T16:04:01;39.35;;;32.42;;
2576;SDS011;1298;51.252;6.802;2023-12-20T16:06:46;39.90;;;31.95;;
2576;SDS011;1298;51.252;6.802;2023-12-20T16:09:32;40.80;;;31.10;;
2576;SDS011;1298;51.252;6.802;2023-12-20T16:12:17;39.70;;;32.17;;
2576;SDS011;1298;51.252;6.802;2023-12-20T16:15:05;40.20;;;33.65;;
2576;SDS011;1298;51.252;6.802;2023-12-20T16:17:52;38.92;;;31.95;;
2576;SDS011;1298;51.252;6.802;2023-12-20T16:20:37;38.80;;;31.90;;
2576;SDS011;1298;51.252;6.802;2023-12-20T16:23:23;39.97;;;32.10;;
2576;SDS011;1298;51.252;6.802;2023-12-20T16:26:09;39.85;;;32.50;;
2576;SDS011;1298;51.252;6.802;2023-12-20T16:28:57;39.00;;;30.30;;
2576;SDS011;1298;51.252;6.802;2023-12-20T16:31:44;41.05;;;33.20;;
2576;SDS011;1298;51.252;6.802;2023-12-20T16:34:30;37.03;;;30.40;;
2576;SDS011;1298;51.252;6.802;2023-12-20T16:37:15;38.15;;;31.63;;
2576;SDS011;1298;51.252;6.802;2023-12-20T16:40:01;37.42;;;30.92;;
2576;SDS011;1298;51.252;6.802;2023-12-20T16:42:47;37.97;;;31.50;;